createdAt,value
2023-08-15T00:01:49.927Z,84.58
2023-08-15T00:04:16.837Z,84.49
2023-08-15T00:06:43.484Z,84.50
2023-08-15T00:09:10.170Z,84.77
2023-08-15T00:11:36.821Z,85.23
2023-08-15T00:14:03.565Z,84.96
2023-08-15T00:16:30.406Z,85.53
2023-08-15T00:18:57.083Z,84.69
2023-08-15T00:21:23.728Z,84.96
2023-08-15T00:23:50.496Z,85.02
2023-08-15T00:26:17.342Z,85.68
2023-08-15T00:28:46.607Z,85.42
2023-08-15T00:31:13.297Z,85.37
2023-08-15T00:33:42.963Z,85.73
2023-08-15T00:36:09.605Z,85.42
2023-08-15T00:38:36.248Z,85.59
2023-08-15T00:41:02.904Z,85.43
2023-08-15T00:43:31.977Z,85.94
2023-08-15T00:46:01.353Z,85.75
2023-08-15T00:48:31.428Z,85.88
2023-08-15T00:51:01.189Z,85.66
2023-08-15T00:53:31.419Z,85.62
2023-08-15T00:55:59.269Z,85.13
2023-08-15T00:58:27.311Z,85.45
2023-08-15T01:00:54.033Z,85.55
2023-08-15T01:03:21.166Z,85.82
2023-08-15T01:05:48.887Z,85.20
2023-08-15T01:08:16.551Z,85.48
2023-08-15T01:10:44.196Z,85.93
2023-08-15T01:13:17.178Z,85.55
2023-08-15T01:15:51.598Z,86.12
2023-08-15T01:18:32.287Z,85.72
2023-08-15T01:21:00.391Z,85.14
2023-08-15T01:23:52.838Z,86.06
2023-08-15T01:26:21.881Z,85.00
2023-08-15T01:28:51.193Z,85.74
2023-08-15T01:31:30.049Z,85.38
2023-08-15T01:34:08.030Z,85.67
2023-08-15T01:36:41.274Z,84.96
2023-08-15T01:39:08.650Z,85.70
2023-08-15T01:41:41.060Z,85.13
2023-08-15T01:44:14.421Z,85.20
2023-08-15T01:46:47.732Z,84.92
2023-08-15T01:49:17.473Z,84.53
2023-08-15T01:51:46.227Z,85.25
2023-08-15T01:54:12.905Z,85.32
2023-08-15T01:56:39.805Z,84.83
2023-08-15T01:59:09.603Z,85.02
2023-08-15T02:01:41.024Z,84.63
2023-08-15T02:04:07.768Z,85.20
2023-08-15T02:06:37.421Z,85.03
2023-08-15T02:09:06.602Z,85.77
2023-08-15T02:11:33.246Z,86.04
2023-08-15T02:14:00.079Z,85.99
2023-08-15T02:16:31.443Z,85.94
2023-08-15T02:19:00.637Z,86.04
2023-08-15T02:21:27.297Z,86.07
2023-08-15T02:23:53.999Z,86.54
2023-08-15T02:26:20.696Z,86.09
2023-08-15T02:28:49.709Z,86.55
2023-08-15T02:31:18.575Z,85.76
2023-08-15T02:33:45.280Z,85.56
2023-08-15T02:36:11.998Z,86.14
2023-08-15T02:38:38.634Z,85.49
2023-08-15T02:41:08.278Z,85.31
2023-08-15T02:43:35.196Z,85.29
2023-08-15T02:46:02.450Z,85.34
2023-08-15T02:48:31.906Z,84.76
2023-08-15T02:51:11.915Z,84.94
2023-08-15T02:53:43.948Z,85.36
2023-08-15T02:56:11.612Z,84.68
2023-08-15T02:58:40.691Z,85.03
2023-08-15T03:01:10.567Z,84.61
2023-08-15T03:03:40.295Z,84.46
2023-08-15T03:06:06.978Z,84.53
2023-08-15T03:08:33.595Z,84.35
2023-08-15T03:11:00.308Z,84.22
2023-08-15T03:13:27.032Z,84.26
2023-08-15T03:15:55.363Z,84.32
2023-08-15T03:18:22.066Z,84.28
2023-08-15T03:21:06.476Z,84.29
2023-08-15T03:23:35.925Z,84.20
2023-08-15T03:26:06.273Z,83.79
2023-08-15T03:28:33.697Z,84.23
2023-08-15T03:31:10.297Z,84.77
2023-08-15T03:33:39.962Z,84.34
2023-08-15T03:36:07.080Z,84.47
2023-08-15T03:38:35.958Z,84.63
2023-08-15T03:41:08.506Z,84.13
2023-08-15T03:43:38.507Z,84.88
2023-08-15T03:46:10.009Z,84.65
2023-08-15T03:48:37.929Z,84.60
2023-08-15T03:51:05.646Z,84.32
2023-08-15T03:53:34.527Z,85.02
2023-08-15T03:56:01.108Z,85.25
2023-08-15T03:58:27.933Z,85.02
2023-08-15T04:00:54.702Z,84.62
2023-08-15T04:03:21.361Z,84.87
2023-08-15T04:05:50.692Z,84.63
2023-08-15T04:08:21.130Z,85.02
2023-08-15T04:10:48.423Z,84.52
2023-08-15T04:13:15.835Z,84.83
2023-08-15T04:15:42.612Z,84.45
2023-08-15T04:18:12.618Z,84.46
2023-08-15T04:20:43.763Z,85.13
2023-08-15T04:23:11.404Z,85.16
2023-08-15T04:25:42.298Z,85.50
2023-08-15T04:28:11.277Z,85.21
2023-08-15T04:30:38.134Z,84.78
2023-08-15T04:33:05.290Z,85.13
2023-08-15T04:35:36.796Z,85.42
2023-08-15T04:38:03.776Z,84.84
2023-08-15T04:40:45.047Z,85.42
2023-08-15T04:43:12.295Z,85.48
2023-08-15T04:45:50.312Z,84.86
2023-08-15T04:48:17.020Z,85.67
2023-08-15T04:50:43.755Z,85.52
2023-08-15T04:53:10.411Z,85.80
2023-08-15T04:55:37.115Z,84.99
2023-08-15T04:58:06.306Z,85.38
2023-08-15T05:00:36.289Z,85.84
2023-08-15T05:03:03.310Z,85.66
2023-08-15T05:05:32.519Z,86.12
2023-08-15T05:07:59.292Z,85.73
2023-08-15T05:10:25.924Z,85.24
2023-08-15T05:12:52.775Z,85.49
2023-08-15T05:15:19.445Z,85.88
2023-08-15T05:17:49.648Z,85.36
2023-08-15T05:20:16.772Z,85.56
2023-08-15T05:22:43.562Z,86.27
2023-08-15T05:25:10.435Z,85.63
2023-08-15T05:27:37.766Z,86.27
2023-08-15T05:30:04.737Z,85.39
2023-08-15T05:32:31.422Z,86.04
2023-08-15T05:35:00.190Z,86.01
2023-08-15T05:37:29.557Z,85.65
2023-08-15T05:39:56.187Z,86.06
2023-08-15T05:42:22.857Z,86.19
2023-08-15T05:44:50.677Z,85.54
2023-08-15T05:47:22.064Z,85.74
2023-08-15T05:49:48.973Z,85.82
2023-08-15T05:52:15.623Z,86.29
2023-08-15T05:54:42.326Z,86.36
2023-08-15T05:57:09.276Z,86.39
2023-08-15T05:59:35.956Z,86.81
2023-08-15T06:02:07.663Z,86.64
2023-08-15T06:04:34.508Z,86.58
2023-08-15T06:07:01.263Z,86.13
2023-08-15T06:09:28.460Z,86.71
2023-08-15T06:11:55.271Z,86.76
2023-08-15T06:14:24.290Z,86.75
2023-08-15T06:16:53.746Z,86.26
2023-08-15T06:19:23.114Z,86.37
2023-08-15T06:21:52.128Z,86.53
2023-08-15T06:24:18.856Z,86.38
2023-08-15T06:26:47.633Z,86.77
2023-08-15T06:29:14.320Z,86.07
2023-08-15T06:31:41.141Z,86.33
2023-08-15T06:34:08.578Z,86.01
2023-08-15T06:36:35.356Z,86.40
2023-08-15T06:39:02.318Z,86.39
2023-08-15T06:41:29.043Z,86.21
2023-08-15T06:43:55.839Z,85.93
2023-08-15T06:46:27.499Z,86.75
2023-08-15T06:48:54.264Z,88.43
2023-08-15T06:51:21.026Z,90.03
2023-08-15T06:53:50.888Z,89.02
2023-08-15T06:56:18.221Z,87.78
2023-08-15T06:58:44.848Z,84.78
2023-08-15T07:01:13.383Z,81.78
2023-08-15T07:03:42.393Z,77.68
2023-08-15T07:06:09.160Z,73.98
2023-08-15T07:08:35.976Z,70.08
2023-08-15T07:11:04.015Z,66.54
2023-08-15T07:13:32.165Z,63.75
2023-08-15T07:15:59.140Z,60.70
2023-08-15T07:18:29.167Z,58.42
2023-08-15T07:20:55.917Z,56.21
2023-08-15T07:23:22.673Z,54.31
2023-08-15T07:25:51.806Z,52.21
2023-08-15T07:28:19.042Z,50.91
2023-08-15T07:30:49.901Z,48.75
2023-08-15T07:33:17.441Z,47.27
2023-08-15T07:35:44.279Z,45.83
2023-08-15T07:38:11.060Z,44.61
2023-08-15T07:40:37.973Z,42.92
2023-08-15T07:43:04.876Z,41.77
2023-08-15T07:45:31.591Z,40.44
2023-08-15T07:47:59.715Z,39.64
2023-08-15T07:50:29.802Z,38.47
2023-08-15T07:53:00.543Z,37.55
2023-08-15T07:55:33.295Z,37.29
2023-08-15T07:58:00.318Z,36.78
2023-08-15T08:00:27.171Z,36.23
2023-08-15T08:02:56.425Z,35.62
2023-08-15T08:05:23.777Z,35.12
2023-08-15T08:07:55.779Z,35.22
2023-08-15T08:10:24.792Z,33.91
2023-08-15T08:12:51.557Z,33.27
2023-08-15T08:15:24.728Z,33.39
2023-08-15T08:17:53.980Z,32.58
2023-08-15T08:20:21.798Z,32.37
2023-08-15T08:22:48.510Z,32.25
2023-08-15T08:25:18.023Z,31.52
2023-08-15T08:27:48.694Z,31.27
2023-08-15T08:30:18.547Z,30.88
2023-08-15T08:32:45.537Z,30.72
2023-08-15T08:35:16.556Z,30.69
2023-08-15T08:37:44.587Z,30.40
2023-08-15T08:40:14.029Z,31.43
2023-08-15T08:42:42.053Z,31.77
2023-08-15T08:45:12.736Z,31.48
2023-08-15T08:47:40.949Z,31.50
2023-08-15T08:50:12.465Z,31.40
2023-08-15T08:52:43.569Z,31.21
2023-08-15T08:55:10.628Z,31.25
2023-08-15T08:57:38.248Z,31.15
2023-08-15T09:00:09.013Z,30.93
2023-08-15T09:02:36.796Z,31.10
2023-08-15T09:05:05.391Z,30.56
2023-08-15T09:07:38.446Z,30.41
2023-08-15T09:10:08.723Z,30.25
2023-08-15T09:12:36.997Z,30.17
2023-08-15T09:15:11.008Z,29.89
2023-08-15T09:17:42.285Z,29.88
2023-08-15T09:20:17.865Z,29.43
2023-08-15T09:22:48.404Z,28.96
2023-08-15T09:25:17.023Z,29.59
2023-08-15T09:27:44.114Z,29.08
2023-08-15T09:30:12.915Z,28.86
2023-08-15T09:32:43.332Z,28.99
2023-08-15T09:35:12.056Z,29.08
2023-08-15T09:37:48.836Z,28.65
2023-08-15T09:40:18.021Z,28.94
2023-08-15T09:42:48.597Z,29.93
2023-08-15T09:45:22.219Z,29.67
2023-08-15T09:47:49.097Z,29.16
2023-08-15T09:50:17.358Z,29.17
2023-08-15T09:52:53.156Z,28.26
2023-08-15T09:55:20.949Z,29.60
2023-08-15T09:57:48.033Z,29.34
2023-08-15T10:00:18.457Z,29.23
2023-08-15T10:03:25.311Z,29.77
2023-08-15T10:05:59.122Z,30.33
2023-08-15T10:08:26.023Z,29.78
2023-08-15T10:10:57.835Z,30.11
2023-08-15T10:13:29.963Z,30.57
2023-08-15T10:15:59.360Z,30.83
2023-08-15T10:18:26.738Z,30.90
2023-08-15T10:20:54.828Z,31.52
2023-08-15T10:23:25.284Z,31.67
2023-08-15T10:25:54.242Z,31.75
2023-08-15T10:28:21.380Z,32.34
2023-08-15T10:30:52.743Z,32.88
2023-08-15T10:33:21.761Z,32.65
2023-08-15T10:35:50.713Z,32.97
2023-08-15T10:38:19.905Z,32.76
2023-08-15T10:40:47.632Z,33.95
2023-08-15T10:43:17.947Z,33.13
2023-08-15T10:45:47.516Z,34.32
2023-08-15T10:48:14.785Z,34.36
2023-08-15T10:50:47.039Z,34.20
2023-08-15T10:53:18.891Z,34.09
2023-08-15T10:55:48.271Z,34.33
2023-08-15T10:58:16.464Z,34.11
2023-08-15T11:00:45.672Z,34.81
2023-08-15T11:03:15.458Z,34.62
2023-08-15T11:05:42.982Z,35.16
2023-08-15T11:08:22.206Z,34.22
2023-08-15T11:10:52.630Z,33.92
2023-08-15T11:13:19.685Z,33.80
2023-08-15T11:15:48.631Z,34.53
2023-08-15T11:18:24.301Z,34.22
2023-08-15T11:20:55.564Z,35.05
2023-08-15T11:23:24.750Z,35.02
2023-08-15T11:25:51.434Z,35.38
2023-08-15T11:28:20.229Z,35.77
2023-08-15T11:30:51.638Z,34.95
2023-08-15T11:33:18.427Z,35.39
2023-08-15T11:35:48.206Z,35.53
2023-08-15T11:38:20.256Z,35.11
2023-08-15T11:40:47.885Z,35.23
2023-08-15T11:43:15.539Z,35.37
2023-08-15T11:45:45.087Z,34.78
2023-08-15T11:48:12.920Z,35.28
2023-08-15T11:50:44.707Z,35.56
2023-08-15T11:53:18.996Z,35.63
2023-08-15T11:55:50.601Z,35.64
2023-08-15T11:58:34.819Z,35.07
2023-08-15T12:01:06.553Z,35.58
2023-08-15T12:03:34.686Z,36.20
2023-08-15T12:06:06.431Z,35.61
2023-08-15T12:08:33.587Z,35.92
2023-08-15T12:11:05.193Z,36.11
2023-08-15T12:13:34.252Z,36.43
2023-08-15T12:16:02.120Z,35.97
2023-08-15T12:18:29.562Z,36.50
2023-08-15T12:20:59.537Z,36.69
2023-08-15T12:23:28.674Z,37.01
2023-08-15T12:25:56.593Z,37.37
2023-08-15T12:28:23.871Z,37.09
2023-08-15T12:30:51.065Z,37.54
2023-08-15T12:33:27.578Z,38.24
2023-08-15T12:36:04.938Z,37.67
2023-08-15T12:38:31.611Z,38.24
2023-08-15T12:40:58.273Z,38.29
2023-08-15T12:43:24.956Z,39.01
2023-08-15T12:45:54.123Z,38.68
2023-08-15T12:48:21.014Z,38.59
2023-08-15T12:50:47.624Z,39.66
2023-08-15T12:53:14.318Z,39.37
2023-08-15T12:55:41.023Z,39.67
2023-08-15T12:58:09.214Z,39.69
2023-08-15T13:00:36.759Z,39.72
2023-08-15T13:03:04.349Z,40.33
2023-08-15T13:05:35.879Z,40.41
2023-08-15T13:08:04.875Z,40.83
2023-08-15T13:10:31.614Z,41.36
2023-08-15T13:12:58.430Z,41.61
2023-08-15T13:15:25.648Z,41.82
2023-08-15T13:17:52.609Z,41.25
2023-08-15T13:20:19.432Z,41.31
2023-08-15T13:22:46.109Z,41.58
2023-08-15T13:25:12.805Z,41.83
2023-08-15T13:27:39.841Z,41.85
2023-08-15T13:30:07.348Z,42.12
2023-08-15T13:32:37.163Z,42.67
2023-08-15T13:35:04.049Z,43.46
2023-08-15T13:37:30.707Z,43.06
2023-08-15T13:39:58.772Z,43.34
2023-08-15T13:42:35.952Z,43.04
2023-08-15T13:45:07.597Z,43.34
2023-08-15T13:47:36.274Z,43.11
2023-08-15T13:50:03.387Z,43.44
2023-08-15T13:52:30.224Z,43.67
2023-08-15T13:54:56.869Z,44.15
2023-08-15T13:57:28.351Z,44.12
2023-08-15T13:59:56.005Z,44.26
2023-08-15T14:02:22.842Z,44.58
2023-08-15T14:04:51.913Z,44.41
2023-08-15T14:07:18.640Z,44.95
2023-08-15T14:09:45.432Z,45.10
2023-08-15T14:12:12.092Z,44.95
2023-08-15T14:14:41.484Z,45.45
2023-08-15T14:17:08.534Z,45.43
2023-08-15T14:19:35.376Z,45.09
2023-08-15T14:22:04.542Z,45.44
2023-08-15T14:24:34.382Z,45.43
2023-08-15T14:27:01.318Z,45.46
2023-08-15T14:29:30.978Z,45.03
2023-08-15T14:31:57.725Z,45.67
2023-08-15T14:34:24.392Z,45.69
2023-08-15T14:36:51.145Z,45.29
2023-08-15T14:39:20.386Z,46.13
2023-08-15T14:41:47.033Z,45.96
2023-08-15T14:44:13.772Z,45.79
2023-08-15T14:46:40.493Z,46.28
2023-08-15T14:49:07.218Z,45.87
2023-08-15T14:51:33.874Z,46.01
2023-08-15T14:54:03.034Z,46.02
2023-08-15T14:56:29.815Z,46.00
2023-08-15T14:58:56.597Z,45.97
2023-08-15T15:01:25.866Z,46.42
2023-08-15T15:03:56.951Z,46.90
2023-08-15T15:06:24.113Z,47.01
2023-08-15T15:08:51.340Z,47.25
2023-08-15T15:11:17.996Z,47.07
2023-08-15T15:13:46.678Z,47.39
2023-08-15T15:16:14.009Z,47.70
2023-08-15T15:18:42.095Z,47.55
2023-08-15T15:21:08.869Z,47.18
2023-08-15T15:23:35.547Z,47.74
2023-08-15T15:26:02.360Z,47.72
2023-08-15T15:28:29.104Z,47.74
2023-08-15T15:30:56.066Z,47.79
2023-08-15T15:33:27.606Z,48.19
2023-08-15T15:35:54.337Z,48.47
2023-08-15T15:38:23.407Z,48.70
2023-08-15T15:40:50.078Z,48.84
2023-08-15T15:43:21.441Z,48.39
2023-08-15T15:45:50.487Z,48.61
2023-08-15T15:48:17.366Z,48.82
2023-08-15T15:50:47.428Z,49.01
2023-08-15T15:53:14.098Z,49.50
2023-08-15T15:55:40.727Z,49.64
2023-08-15T15:58:09.716Z,49.22
2023-08-15T16:00:37.020Z,49.53
2023-08-15T16:03:03.967Z,49.18
2023-08-15T16:05:33.646Z,48.85
2023-08-15T16:08:00.416Z,48.89
2023-08-15T16:10:29.581Z,49.40
2023-08-15T16:13:00.998Z,49.45
2023-08-15T16:15:27.764Z,49.52
2023-08-15T16:17:54.481Z,48.87
2023-08-15T16:20:21.231Z,49.14
2023-08-15T16:22:47.916Z,49.24
2023-08-15T16:25:14.715Z,49.74
2023-08-15T16:27:43.778Z,50.20
2023-08-15T16:30:17.133Z,49.73
2023-08-15T16:32:49.245Z,50.43
2023-08-15T16:35:16.310Z,50.18
2023-08-15T16:37:42.965Z,49.87
2023-08-15T16:40:11.209Z,50.00
2023-08-15T16:42:42.716Z,49.67
2023-08-15T16:45:12.792Z,49.93
2023-08-15T16:47:44.215Z,49.75
2023-08-15T16:50:10.967Z,50.35
2023-08-15T16:52:40.102Z,50.13
2023-08-15T16:55:06.992Z,50.75
2023-08-15T16:57:35.909Z,51.11
2023-08-15T17:00:02.690Z,51.20
2023-08-15T17:02:29.437Z,51.14
2023-08-15T17:04:56.172Z,51.13
2023-08-15T17:07:22.884Z,50.96
2023-08-15T17:09:52.168Z,51.88
2023-08-15T17:12:21.178Z,51.11
2023-08-15T17:14:48.116Z,51.47
2023-08-15T17:17:14.818Z,52.37
2023-08-15T17:19:45.797Z,52.02
2023-08-15T17:22:16.439Z,52.19
2023-08-15T17:24:46.136Z,51.92
2023-08-15T17:27:15.441Z,52.15
2023-08-15T17:29:42.097Z,52.63
2023-08-15T17:32:08.902Z,53.36
2023-08-15T17:34:38.549Z,53.01
2023-08-15T17:37:10.255Z,53.89
2023-08-15T17:39:37.342Z,53.68
2023-08-15T17:42:04.102Z,53.67
2023-08-15T17:44:30.981Z,54.06
2023-08-15T17:47:00.154Z,54.35
2023-08-15T17:49:31.605Z,54.55
2023-08-15T17:51:58.278Z,55.47
2023-08-15T17:54:24.999Z,54.96
2023-08-15T17:56:51.664Z,55.51
2023-08-15T17:59:18.411Z,55.84
2023-08-15T18:01:48.714Z,56.57
2023-08-15T18:04:15.808Z,56.58
2023-08-15T18:06:45.045Z,56.79
2023-08-15T18:09:11.856Z,57.01
2023-08-15T18:11:41.260Z,57.43
2023-08-15T18:14:08.018Z,57.54
2023-08-15T18:16:36.946Z,58.01
2023-08-15T18:19:03.766Z,57.80
2023-08-15T18:21:32.843Z,57.88
2023-08-15T18:23:59.640Z,57.79
2023-08-15T18:26:31.434Z,58.08
2023-08-15T18:28:58.114Z,57.84
2023-08-15T18:31:24.864Z,58.64
2023-08-15T18:33:52.049Z,59.20
2023-08-15T18:36:18.745Z,59.33
2023-08-15T18:38:45.503Z,59.48
2023-08-15T18:41:12.532Z,59.24
2023-08-15T18:43:39.277Z,59.42
2023-08-15T18:46:06.066Z,59.65
2023-08-15T18:48:35.165Z,59.62
2023-08-15T18:51:01.931Z,59.91
2023-08-15T18:53:28.740Z,60.27
2023-08-15T18:55:55.464Z,59.86
2023-08-15T18:58:22.218Z,60.18
2023-08-15T19:00:51.210Z,60.35
2023-08-15T19:03:20.339Z,60.27
2023-08-15T19:05:47.260Z,60.76
2023-08-15T19:08:14.360Z,61.04
2023-08-15T19:10:48.313Z,61.06
2023-08-15T19:13:22.289Z,61.22
2023-08-15T19:15:49.960Z,61.42
2023-08-15T19:18:16.813Z,61.76
2023-08-15T19:20:43.866Z,61.73
2023-08-15T19:23:10.827Z,61.94
2023-08-15T19:25:40.816Z,62.43
2023-08-15T19:28:07.741Z,62.60
2023-08-15T19:30:34.537Z,62.37
2023-08-15T19:33:01.274Z,62.87
2023-08-15T19:35:27.995Z,63.27
2023-08-15T19:37:55.037Z,63.58
2023-08-15T19:40:21.666Z,63.76
2023-08-15T19:42:53.140Z,64.26
2023-08-15T19:45:22.144Z,64.17
2023-08-15T19:47:51.089Z,64.56
2023-08-15T19:50:17.777Z,65.07
2023-08-15T19:52:44.488Z,65.16
2023-08-15T19:55:11.886Z,65.53
2023-08-15T19:57:39.028Z,65.72
2023-08-15T20:00:08.118Z,65.91
2023-08-15T20:02:34.858Z,66.02
2023-08-15T20:05:01.593Z,66.30
2023-08-15T20:07:30.668Z,66.64
2023-08-15T20:10:09.819Z,66.71
2023-08-15T20:12:38.885Z,67.08
2023-08-15T20:15:06.124Z,67.53
2023-08-15T20:17:32.829Z,67.62
2023-08-15T20:19:59.782Z,67.89
2023-08-15T20:22:26.949Z,68.33
2023-08-15T20:24:54.152Z,68.55
2023-08-15T20:27:20.919Z,68.56
2023-08-15T20:29:54.277Z,68.99
2023-08-15T20:32:23.589Z,69.42
2023-08-15T20:34:52.648Z,69.54
2023-08-15T20:37:21.780Z,69.90
2023-08-15T20:39:48.549Z,70.21
2023-08-15T20:42:20.235Z,70.81
2023-08-15T20:44:46.869Z,70.98
2023-08-15T20:47:13.814Z,70.81
2023-08-15T20:49:42.375Z,71.27
2023-08-15T20:52:11.637Z,71.44
2023-08-15T20:54:38.329Z,71.42
2023-08-15T20:57:05.320Z,71.63
2023-08-15T20:59:32.047Z,71.47
2023-08-15T21:02:00.461Z,71.92
2023-08-15T21:04:27.197Z,71.77
2023-08-15T21:06:54.082Z,71.93
2023-08-15T21:09:20.815Z,72.38
2023-08-15T21:11:48.104Z,72.18
2023-08-15T21:14:15.806Z,72.30
2023-08-15T21:16:42.952Z,72.44
2023-08-15T21:19:11.843Z,72.62
2023-08-15T21:21:38.536Z,72.64
2023-08-15T21:24:07.972Z,72.94
2023-08-15T21:26:39.562Z,72.99
2023-08-15T21:29:09.384Z,73.18
2023-08-15T21:31:36.036Z,73.21
2023-08-15T21:34:02.810Z,73.08
2023-08-15T21:36:29.491Z,73.09
2023-08-15T21:38:56.162Z,73.33
2023-08-15T21:41:25.170Z,73.34
2023-08-15T21:43:54.158Z,73.67
2023-08-15T21:46:23.374Z,73.52
2023-08-15T21:48:50.029Z,73.68
2023-08-15T21:51:18.921Z,73.85
2023-08-15T21:53:45.642Z,73.54
2023-08-15T21:56:12.296Z,74.09
2023-08-15T21:58:38.947Z,74.10
2023-08-15T22:01:05.650Z,74.28
2023-08-15T22:03:34.933Z,74.19
2023-08-15T22:06:04.001Z,74.30
2023-08-15T22:08:30.730Z,74.42
2023-08-15T22:10:57.388Z,74.36
2023-08-15T22:13:24.069Z,74.64
2023-08-15T22:15:53.717Z,74.55
2023-08-15T22:18:21.913Z,75.18
2023-08-15T22:20:49.576Z,75.11
2023-08-15T22:23:16.533Z,74.89
2023-08-15T22:25:47.484Z,74.94
2023-08-15T22:28:15.272Z,75.46
2023-08-15T22:30:42.466Z,75.39
2023-08-15T22:33:09.360Z,75.15
2023-08-15T22:35:42.084Z,75.66
2023-08-15T22:38:09.199Z,76.00
2023-08-15T22:40:36.525Z,75.36
2023-08-15T22:43:04.749Z,75.86
2023-08-15T22:45:31.572Z,76.09
2023-08-15T22:48:00.562Z,75.66
2023-08-15T22:50:27.257Z,76.24
2023-08-15T22:52:58.381Z,76.29
2023-08-15T22:55:25.094Z,76.18
2023-08-15T22:57:53.889Z,76.50
2023-08-15T23:00:23.090Z,75.98
2023-08-15T23:02:49.785Z,76.30
2023-08-15T23:05:16.625Z,76.60
2023-08-15T23:07:43.826Z,76.79
2023-08-15T23:10:10.910Z,76.56
2023-08-15T23:12:39.810Z,76.82
2023-08-15T23:15:07.604Z,76.95
2023-08-15T23:17:36.653Z,76.58
2023-08-15T23:20:03.463Z,76.52
2023-08-15T23:22:30.109Z,77.35
2023-08-15T23:24:59.054Z,77.34
2023-08-15T23:27:26.038Z,77.35
2023-08-15T23:29:52.921Z,77.03
2023-08-15T23:32:19.579Z,77.26
2023-08-15T23:34:46.341Z,77.24
2023-08-15T23:37:13.089Z,77.34
2023-08-15T23:39:42.218Z,78.10
2023-08-15T23:42:13.463Z,78.06
2023-08-15T23:44:40.092Z,77.79
2023-08-15T23:47:12.292Z,78.01
2023-08-15T23:49:38.931Z,77.46
2023-08-15T23:52:06.063Z,77.88
2023-08-15T23:54:35.227Z,77.95
2023-08-15T23:57:04.591Z,77.64
2023-08-15T23:59:31.555Z,77.80
